createdAt,value
2023-05-17T00:02:41.646Z,25.90
2023-05-17T00:05:56.050Z,25.80
2023-05-17T00:09:07.798Z,25.90
2023-05-17T00:12:20.287Z,25.90
2023-05-17T00:15:33.885Z,25.90
2023-05-17T00:18:43.363Z,25.80
2023-05-17T00:21:53.411Z,25.80
2023-05-17T00:25:02.207Z,25.80
2023-05-17T00:28:15.799Z,25.80
2023-05-17T00:31:26.907Z,25.80
2023-05-17T00:34:34.881Z,25.70
2023-05-17T00:37:46.997Z,25.70
2023-05-17T00:40:59.560Z,25.70
2023-05-17T00:44:14.245Z,25.70
2023-05-17T00:47:26.410Z,25.70
2023-05-17T00:50:37.901Z,25.70
2023-05-17T00:53:49.184Z,25.60
2023-05-17T00:57:02.330Z,25.70
2023-05-17T01:00:11.074Z,25.70
2023-05-17T01:03:24.126Z,25.60
2023-05-17T01:06:32.103Z,25.60
2023-05-17T01:09:43.857Z,25.60
2023-05-17T01:12:57.104Z,25.60
2023-05-17T01:16:13.154Z,25.60
2023-05-17T01:19:27.304Z,25.50
2023-05-17T01:22:49.642Z,25.50
2023-05-17T01:26:01.550Z,25.50
2023-05-17T01:29:15.258Z,25.50
2023-05-17T01:32:26.950Z,25.50
2023-05-17T01:35:41.982Z,25.50
2023-05-17T01:38:53.066Z,25.40
2023-05-17T01:42:04.647Z,25.50
2023-05-17T01:45:18.892Z,25.40
2023-05-17T01:48:31.831Z,25.40
2023-05-17T01:51:44.600Z,25.40
2023-05-17T01:54:58.609Z,25.40
2023-05-17T01:58:09.525Z,25.50
2023-05-17T02:01:24.801Z,25.50
2023-05-17T02:04:34.875Z,25.50
2023-05-17T02:07:51.405Z,25.50
2023-05-17T02:10:59.942Z,25.50
2023-05-17T02:14:12.998Z,25.60
2023-05-17T02:17:25.652Z,25.60
2023-05-17T02:20:36.627Z,25.60
2023-05-17T02:23:49.350Z,25.60
2023-05-17T02:42:33.022Z,25.10
2023-05-17T02:45:43.726Z,24.80
2023-05-17T02:48:55.516Z,24.90
2023-05-17T02:52:08.392Z,25.00
2023-05-17T02:58:40.990Z,25.00
2023-05-17T03:01:52.670Z,25.10
2023-05-17T03:05:05.798Z,25.20
2023-05-17T03:08:20.650Z,25.30
2023-05-17T03:11:31.578Z,25.30
2023-05-17T03:14:46.492Z,25.30
2023-05-17T03:18:01.827Z,25.30
2023-05-17T03:21:12.079Z,25.30
2023-05-17T03:24:21.561Z,25.30
2023-05-17T03:27:34.129Z,25.20
2023-05-17T03:30:45.907Z,25.30
2023-05-17T03:33:58.241Z,25.30
2023-05-17T03:37:12.976Z,25.30
2023-05-17T03:40:27.920Z,25.30
2023-05-17T03:43:38.537Z,25.20
2023-05-17T03:46:51.230Z,25.30
2023-05-17T03:50:03.523Z,25.30
2023-05-17T03:53:15.960Z,25.30
2023-05-17T03:56:30.636Z,25.30
2023-05-17T03:59:44.127Z,25.20
2023-05-17T04:02:57.773Z,25.30
2023-05-17T04:06:13.791Z,25.30
2023-05-17T04:09:23.867Z,25.30
2023-05-17T04:12:37.062Z,25.20
2023-05-17T04:15:44.750Z,25.20
2023-05-17T04:18:57.787Z,25.20
2023-05-17T04:22:08.364Z,25.30
2023-05-17T04:25:22.142Z,25.20
2023-05-17T04:28:33.079Z,25.10
2023-05-17T04:31:44.586Z,25.10
2023-05-17T04:34:57.068Z,25.10
2023-05-17T04:38:08.236Z,25.10
2023-05-17T04:41:21.581Z,25.10
2023-05-17T04:44:36.276Z,25.10
2023-05-17T04:47:46.857Z,25.10
2023-05-17T04:50:58.225Z,25.10
2023-05-17T04:54:14.645Z,25.10
2023-05-17T04:57:28.617Z,24.90
2023-05-17T05:00:39.229Z,24.90
2023-05-17T05:03:50.302Z,24.90
2023-05-17T05:07:02.840Z,24.80
2023-05-17T05:10:16.047Z,24.80
2023-05-17T05:13:28.358Z,24.80
2023-05-17T05:16:40.453Z,24.80
2023-05-17T05:19:52.971Z,24.70
2023-05-17T05:23:07.769Z,24.60
2023-05-17T05:26:20.215Z,24.70
2023-05-17T05:29:30.901Z,24.70
2023-05-17T05:32:44.814Z,24.60
2023-05-17T05:35:57.411Z,24.60
2023-05-17T05:39:09.169Z,24.50
2023-05-17T05:42:19.962Z,24.60
2023-05-17T05:45:31.225Z,24.50
2023-05-17T05:48:43.002Z,24.50
2023-05-17T05:51:56.184Z,24.40
2023-05-17T05:55:03.778Z,24.40
2023-05-17T05:58:16.539Z,24.40
2023-05-17T06:01:25.828Z,24.40
2023-05-17T06:04:44.644Z,24.30
2023-05-17T06:07:48.747Z,24.20
2023-05-17T06:11:03.119Z,24.30
2023-05-17T06:14:17.076Z,24.30
2023-05-17T06:17:28.678Z,24.30
2023-05-17T06:20:38.834Z,24.20
2023-05-17T06:23:49.584Z,24.20
2023-05-17T06:27:01.581Z,24.20
2023-05-17T06:30:18.723Z,24.20
2023-05-17T06:33:29.234Z,24.10
2023-05-17T06:36:41.830Z,24.10
2023-05-17T06:40:00.177Z,24.10
2023-05-17T06:43:07.826Z,24.10
2023-05-17T06:46:21.133Z,24.10
2023-05-17T06:49:35.875Z,24.00
2023-05-17T06:52:49.144Z,23.90
2023-05-17T06:55:59.556Z,24.00
2023-05-17T06:59:12.520Z,24.00
2023-05-17T07:02:23.542Z,24.00
2023-05-17T07:05:36.643Z,23.80
2023-05-17T07:08:48.568Z,23.80
2023-05-17T07:12:04.248Z,23.90
2023-05-17T07:15:15.089Z,23.90
2023-05-17T07:18:31.195Z,23.80
2023-05-17T07:21:43.509Z,23.70
2023-05-17T07:24:54.703Z,23.70
2023-05-17T07:28:06.247Z,23.80
2023-05-17T07:31:19.997Z,23.80
2023-05-17T07:34:30.342Z,23.70
2023-05-17T07:37:43.073Z,23.70
2023-05-17T07:40:54.978Z,23.70
2023-05-17T07:44:05.177Z,23.70
2023-05-17T07:47:18.969Z,23.60
2023-05-17T07:50:34.115Z,23.60
2023-05-17T07:53:45.291Z,23.50
2023-05-17T07:56:58.300Z,23.60
2023-05-17T08:00:09.396Z,23.60
2023-05-17T08:03:22.445Z,23.50
2023-05-17T08:06:37.029Z,23.50
2023-05-17T08:09:52.158Z,23.50
2023-05-17T08:13:05.238Z,23.50
2023-05-17T08:16:15.028Z,23.50
2023-05-17T08:19:31.014Z,23.40
2023-05-17T08:22:43.802Z,23.30
2023-05-17T08:25:56.861Z,23.40
2023-05-17T08:29:10.433Z,23.50
2023-05-17T08:32:20.934Z,23.40
2023-05-17T08:35:34.319Z,23.30
2023-05-17T08:38:49.573Z,23.30
2023-05-17T08:42:00.194Z,23.20
2023-05-17T08:45:14.354Z,23.20
2023-05-17T08:48:24.439Z,23.20
2023-05-17T08:51:34.829Z,23.20
2023-05-17T08:54:45.817Z,23.20
2023-05-17T08:57:56.856Z,23.20
2023-05-17T09:01:10.224Z,23.20
2023-05-17T09:04:20.646Z,23.10
2023-05-17T09:07:35.557Z,23.10
2023-05-17T09:10:44.847Z,23.10
2023-05-17T09:13:56.462Z,23.10
2023-05-17T09:17:06.479Z,23.10
2023-05-17T09:20:19.909Z,23.00
2023-05-17T09:23:30.237Z,23.00
2023-05-17T09:26:49.084Z,23.00
2023-05-17T09:30:02.588Z,23.00
2023-05-17T09:33:18.971Z,22.90
2023-05-17T09:36:27.599Z,22.80
2023-05-17T09:39:39.320Z,22.90
2023-05-17T09:42:51.289Z,22.90
2023-05-17T09:46:05.513Z,22.90
2023-05-17T09:49:16.483Z,22.80
2023-05-17T09:52:28.861Z,22.80
2023-05-17T09:55:40.593Z,22.80
2023-05-17T09:58:48.962Z,22.80
2023-05-17T10:02:04.654Z,22.70
2023-05-17T10:05:18.411Z,22.70
2023-05-17T10:08:28.320Z,22.70
2023-05-17T10:11:40.928Z,22.70
2023-05-17T10:14:52.987Z,22.70
2023-05-17T10:18:10.310Z,22.70
2023-05-17T10:21:22.686Z,22.60
2023-05-17T10:24:33.556Z,22.70
2023-05-17T10:27:44.280Z,22.70
2023-05-17T10:30:55.040Z,22.70
2023-05-17T10:34:07.471Z,22.60
2023-05-17T10:37:19.462Z,22.70
2023-05-17T10:40:30.193Z,22.90
2023-05-17T10:43:39.646Z,23.10
2023-05-17T10:46:55.250Z,23.20
2023-05-17T10:50:09.322Z,23.30
2023-05-17T10:53:19.778Z,23.50
2023-05-17T10:56:35.904Z,23.60
2023-05-17T10:59:59.652Z,23.70
2023-05-17T11:03:20.767Z,23.80
2023-05-17T11:06:31.106Z,23.80
2023-05-17T11:09:42.889Z,23.70
2023-05-17T11:12:54.417Z,23.60
2023-05-17T11:16:10.633Z,23.70
2023-05-17T11:19:21.421Z,23.80
2023-05-17T11:22:33.837Z,23.80
2023-05-17T11:25:45.577Z,23.90
2023-05-17T11:29:02.102Z,23.90
2023-05-17T11:32:15.109Z,23.90
2023-05-17T11:35:25.853Z,23.90
2023-05-17T11:38:36.243Z,23.90
2023-05-17T11:41:51.207Z,23.90
2023-05-17T11:45:01.152Z,23.90
2023-05-17T11:48:12.341Z,23.90
2023-05-17T11:51:25.076Z,23.80
2023-05-17T11:54:33.278Z,23.90
2023-05-17T11:57:45.130Z,24.00
2023-05-17T12:00:57.998Z,24.10
2023-05-17T12:04:09.086Z,24.20
2023-05-17T12:07:20.832Z,24.20
2023-05-17T12:10:34.244Z,24.20
2023-05-17T12:13:43.706Z,24.10
2023-05-17T12:16:58.926Z,24.10
2023-05-17T12:20:16.754Z,24.10
2023-05-17T12:23:32.093Z,24.10
2023-05-17T12:26:47.657Z,24.20
2023-05-17T12:30:00.223Z,24.30
2023-05-17T12:33:15.346Z,24.30
2023-05-17T12:36:26.414Z,24.20
2023-05-17T12:39:36.072Z,24.10
2023-05-17T12:42:46.701Z,24.10
2023-05-17T12:46:00.396Z,24.00
2023-05-17T12:49:14.565Z,24.00
2023-05-17T12:52:25.578Z,24.00
2023-05-17T12:55:41.553Z,24.10
2023-05-17T12:58:57.319Z,24.20
2023-05-17T13:02:07.422Z,24.30
2023-05-17T13:05:25.902Z,24.40
2023-05-17T13:08:37.321Z,24.40
2023-05-17T13:12:00.774Z,24.40
2023-05-17T13:15:10.966Z,24.40
2023-05-17T13:18:26.353Z,24.40
2023-05-17T13:21:35.849Z,24.40
2023-05-17T13:24:51.075Z,24.40
2023-05-17T13:28:00.604Z,24.60
2023-05-17T13:31:09.007Z,24.60
2023-05-17T13:34:20.826Z,24.80
2023-05-17T13:37:31.616Z,24.80
2023-05-17T13:40:41.673Z,24.80
2023-05-17T13:43:53.326Z,24.90
2023-05-17T13:47:08.408Z,25.10
2023-05-17T13:50:18.124Z,25.20
2023-05-17T13:53:31.283Z,25.30
2023-05-17T13:56:40.398Z,25.30
2023-05-17T13:59:55.556Z,25.50
2023-05-17T14:03:09.403Z,25.60
2023-05-17T14:06:20.939Z,25.60
2023-05-17T14:09:33.995Z,25.70
2023-05-17T14:12:45.805Z,25.50
2023-05-17T14:15:55.889Z,25.50
2023-05-17T14:19:06.511Z,25.50
2023-05-17T14:22:16.229Z,25.50
2023-05-17T14:25:27.261Z,25.70
2023-05-17T14:28:38.462Z,25.60
2023-05-17T14:31:51.823Z,25.60
2023-05-17T14:35:05.784Z,25.70
2023-05-17T14:38:16.705Z,25.70
2023-05-17T14:41:27.726Z,25.60
2023-05-17T14:44:38.299Z,25.60
2023-05-17T14:47:50.461Z,25.60
2023-05-17T14:51:02.850Z,25.50
2023-05-17T14:54:16.561Z,25.60
2023-05-17T14:57:30.983Z,25.50
2023-05-17T15:00:42.379Z,25.50
2023-05-17T15:03:53.638Z,25.50
2023-05-17T15:07:06.785Z,25.50
2023-05-17T15:10:18.211Z,25.40
2023-05-17T15:13:31.148Z,25.40
2023-05-17T15:16:44.866Z,25.40
2023-05-17T15:19:57.110Z,25.40
2023-05-17T15:23:08.226Z,25.30
2023-05-17T15:26:21.368Z,25.30
2023-05-17T15:29:32.672Z,25.30
2023-05-17T15:32:42.699Z,25.20
2023-05-17T15:35:54.456Z,25.20
2023-05-17T15:39:04.589Z,25.20
2023-05-17T15:42:15.748Z,25.20
2023-05-17T15:45:25.704Z,25.20
2023-05-17T15:48:34.681Z,25.10
2023-05-17T15:51:45.067Z,25.20
2023-05-17T15:54:55.625Z,25.20
2023-05-17T15:58:08.456Z,25.20
2023-05-17T16:01:20.383Z,25.20
2023-05-17T16:04:33.079Z,25.30
2023-05-17T16:07:45.160Z,25.40
2023-05-17T16:10:57.429Z,25.30
2023-05-17T16:14:08.868Z,25.30
2023-05-17T16:17:20.873Z,25.40
2023-05-17T16:20:31.133Z,25.40
2023-05-17T16:23:43.502Z,25.40
2023-05-17T16:26:55.050Z,25.30
2023-05-17T16:30:09.834Z,25.30
2023-05-17T16:33:22.885Z,25.30
2023-05-17T16:36:31.787Z,25.40
2023-05-17T16:39:41.171Z,25.40
2023-05-17T16:42:53.973Z,25.30
2023-05-17T16:46:06.975Z,25.30
2023-05-17T16:49:21.925Z,25.30
2023-05-17T16:52:31.837Z,25.30
2023-05-17T16:55:40.402Z,25.30
2023-05-17T16:58:52.816Z,25.20
2023-05-17T17:02:05.235Z,25.30
2023-05-17T17:05:17.694Z,25.30
2023-05-17T17:08:27.363Z,25.30
2023-05-17T17:11:40.537Z,25.20
2023-05-17T17:14:49.444Z,25.20
2023-05-17T17:17:59.551Z,25.30
2023-05-17T17:21:11.408Z,25.30
2023-05-17T17:24:24.577Z,25.30
2023-05-17T17:27:34.965Z,25.20
2023-05-17T17:30:48.145Z,25.20
2023-05-17T17:33:58.268Z,25.30
2023-05-17T17:37:10.154Z,25.30
2023-05-17T17:40:21.578Z,25.20
2023-05-17T17:43:35.148Z,25.10
2023-05-17T17:46:47.089Z,25.10
2023-05-17T17:49:59.585Z,25.30
2023-05-17T17:53:07.250Z,25.30
2023-05-17T17:56:19.298Z,25.20
2023-05-17T17:59:35.555Z,25.20
2023-05-17T18:02:46.900Z,25.20
2023-05-17T18:05:58.990Z,25.20
2023-05-17T18:09:11.235Z,25.20
2023-05-17T18:12:23.060Z,25.10
2023-05-17T18:15:36.058Z,25.10
2023-05-17T18:18:48.753Z,25.10
2023-05-17T18:21:59.403Z,25.20
2023-05-17T18:25:14.029Z,25.20
2023-05-17T18:28:40.851Z,25.10
2023-05-17T18:31:41.055Z,25.20
2023-05-17T18:34:49.848Z,25.20
2023-05-17T18:38:02.239Z,25.20
2023-05-17T18:41:14.823Z,25.20
2023-05-17T18:44:27.682Z,25.10
2023-05-17T18:47:37.117Z,25.20
2023-05-17T18:50:48.871Z,25.30
2023-05-17T18:54:00.063Z,25.30
2023-05-17T18:57:12.629Z,25.20
2023-05-17T19:00:23.972Z,25.30
2023-05-17T19:03:40.402Z,25.30
2023-05-17T19:06:49.960Z,25.40
2023-05-17T19:10:03.184Z,25.40
2023-05-17T19:13:14.324Z,25.30
2023-05-17T19:16:26.667Z,25.30
2023-05-17T19:19:37.243Z,25.30
2023-05-17T19:22:51.957Z,25.30
2023-05-17T19:26:03.704Z,25.30
2023-05-17T19:29:15.984Z,25.20
2023-05-17T19:32:25.736Z,25.20
2023-05-17T19:35:38.349Z,25.30
2023-05-17T19:38:46.929Z,25.40
2023-05-17T19:41:56.374Z,25.30
2023-05-17T19:45:09.123Z,25.30
2023-05-17T19:48:21.928Z,25.30
2023-05-17T19:51:32.114Z,25.40
2023-05-17T19:54:46.672Z,25.40
2023-05-17T19:57:59.620Z,25.20
2023-05-17T20:01:11.307Z,25.20
2023-05-17T20:04:22.660Z,25.30
2023-05-17T20:10:53.106Z,25.30
2023-05-17T20:14:05.523Z,25.20
2023-05-17T20:17:18.580Z,25.30
2023-05-17T20:20:29.919Z,25.40
2023-05-17T20:23:40.041Z,25.40
2023-05-17T20:30:07.390Z,25.20
2023-05-17T20:33:19.620Z,25.20
2023-05-17T20:36:34.792Z,25.30
2023-05-17T20:39:47.692Z,25.30
2023-05-17T20:43:02.069Z,25.30
2023-05-17T20:46:16.935Z,25.30
2023-05-17T20:49:28.216Z,25.30
2023-05-17T20:52:39.952Z,25.40
2023-05-17T20:55:55.198Z,25.40
2023-05-17T20:59:09.857Z,25.30
2023-05-17T21:02:26.951Z,25.30
2023-05-17T21:05:39.110Z,25.20
2023-05-17T21:08:54.535Z,25.30
2023-05-17T21:12:08.294Z,25.10
2023-05-17T21:15:19.285Z,25.20
2023-05-17T21:18:33.367Z,25.20
2023-05-17T21:21:46.827Z,25.20
2023-05-17T21:24:57.182Z,25.30
2023-05-17T21:28:09.249Z,25.20
2023-05-17T21:31:23.430Z,25.30
2023-05-17T21:34:34.255Z,25.40
2023-05-17T21:37:48.361Z,25.40
2023-05-17T21:41:00.123Z,25.30
2023-05-17T21:44:15.336Z,25.30
2023-05-17T21:47:27.621Z,25.30
2023-05-17T21:50:39.406Z,25.30
2023-05-17T21:53:52.323Z,25.40
2023-05-17T21:57:03.645Z,25.40
2023-05-17T22:03:29.376Z,25.40
2023-05-17T22:06:38.067Z,25.50
2023-05-17T22:09:49.092Z,25.50
2023-05-17T22:13:03.823Z,25.40
2023-05-17T22:16:16.672Z,25.40
2023-05-17T22:19:29.976Z,25.40
2023-05-17T22:22:40.623Z,25.50
2023-05-17T22:25:53.005Z,25.50
2023-05-17T22:29:04.787Z,25.30
2023-05-17T22:32:14.723Z,25.40
2023-05-17T22:35:26.635Z,25.40
2023-05-17T22:38:38.354Z,25.40
2023-05-17T22:41:53.179Z,25.40
2023-05-17T22:45:04.452Z,25.40
2023-05-17T22:48:15.377Z,25.40
2023-05-17T22:51:27.326Z,25.40
2023-05-17T22:54:38.763Z,25.40
2023-05-17T22:57:53.768Z,25.40
2023-05-17T23:01:06.442Z,25.40
2023-05-17T23:04:17.895Z,25.40
2023-05-17T23:07:30.108Z,25.40
2023-05-17T23:10:39.665Z,25.40
2023-05-17T23:13:51.432Z,25.30
2023-05-17T23:17:04.876Z,25.20
2023-05-17T23:20:15.687Z,25.30
2023-05-17T23:23:25.080Z,25.30
2023-05-17T23:26:36.569Z,25.20
2023-05-17T23:29:48.721Z,25.20
2023-05-17T23:33:00.694Z,25.20
2023-05-17T23:36:14.140Z,25.20
2023-05-17T23:39:27.572Z,25.20
2023-05-17T23:42:38.574Z,25.20
2023-05-17T23:45:49.928Z,25.20
2023-05-17T23:49:04.180Z,25.20
2023-05-17T23:52:20.583Z,25.20
2023-05-17T23:55:34.323Z,25.20
2023-05-17T23:58:49.714Z,25.10
